Terminal Aerodrome Forecast
Issued by NWS Green Bay, WI

Home | Current Version | Previous Version | Text Only | Print | Product List | Glossary On
Versions: 1 2 3 4 5 6 7 8 9 10 11 12 13 14 15 16 17 18 19 20 21 22 23 24 25 26 27 28 29
000
FTUS43 KGRB 242300
TAFGRB
TAF
KGRB 242332Z 2500/2524 19006KT 6SM BR BKN080
     FM250100 20005KT P6SM SCT025 BKN050 WS015/24035KT
      TEMPO 2502/2504 4SM BR BKN025
     FM250400 24006KT 4SM BR SCT012 OVC025
      TEMPO 2505/2508 BKN012
     FM250800 27008KT P6SM SCT012 WS017/30035KT
     FM251500 28014G24KT P6SM SKC
     FM252300 27010KT P6SM SKC=

USA.gov is the U.S. government's official web portal to all federal, state and local government web resources and services.